sensor_id;sensor_type;location;lat;lon;timestamp;temperature;humidity
12948;DHT22;6539;49.476;8.484;2024-01-11T00:00:52;-1.70;99.90
12948;DHT22;6539;49.476;8.484;2024-01-11T00:03:38;-1.70;99.90
12948;DHT22;6539;49.476;8.484;2024-01-11T00:06:24;-1.70;99.90
12948;DHT22;6539;49.476;8.484;2024-01-11T00:09:10;-1.70;99.90
12948;DHT22;6539;49.476;8.484;2024-01-11T00:11:57;-1.70;99.90
12948;DHT22;6539;49.476;8.484;2024-01-11T00:14:43;-1.70;99.90
12948;DHT22;6539;49.476;8.484;2024-01-11T00:17:34;-1.70;99.90
12948;DHT22;6539;49.476;8.484;2024-01-11T00:20:20;-1.70;99.90
12948;DHT22;6539;49.476;8.484;2024-01-11T00:23:08;-1.80;99.90
12948;DHT22;6539;49.476;8.484;2024-01-11T00:25:54;-1.80;99.90
12948;DHT22;6539;49.476;8.484;2024-01-11T00:28:40;-1.80;99.90
12948;DHT22;6539;49.476;8.484;2024-01-11T00:31:26;-1.90;99.90
12948;DHT22;6539;49.476;8.484;2024-01-11T00:34:13;-1.90;99.90
12948;DHT22;6539;49.476;8.484;2024-01-11T00:37:02;-1.90;99.90
12948;DHT22;6539;49.476;8.484;2024-01-11T00:39:48;-1.90;99.90
12948;DHT22;6539;49.476;8.484;2024-01-11T00:42:38;-2.00;99.90
12948;DHT22;6539;49.476;8.484;2024-01-11T00:45:25;-2.00;99.90
12948;DHT22;6539;49.476;8.484;2024-01-11T00:48:13;-2.10;99.90
12948;DHT22;6539;49.476;8.484;2024-01-11T00:51:03;-2.00;99.90
12948;DHT22;6539;49.476;8.484;2024-01-11T00:53:51;-2.00;99.90
12948;DHT22;6539;49.476;8.484;2024-01-11T00:56:37;-2.00;99.90
12948;DHT22;6539;49.476;8.484;2024-01-11T00:59:25;-1.90;99.90
12948;DHT22;6539;49.476;8.484;2024-01-11T01:02:12;-1.90;99.90
12948;DHT22;6539;49.476;8.484;2024-01-11T01:05:00;-2.00;99.90
12948;DHT22;6539;49.476;8.484;2024-01-11T01:07:46;-1.90;99.90
12948;DHT22;6539;49.476;8.484;2024-01-11T01:10:32;-1.90;99.90
12948;DHT22;6539;49.476;8.484;2024-01-11T01:13:18;-1.90;99.90
12948;DHT22;6539;49.476;8.484;2024-01-11T01:16:07;-2.00;99.90
12948;DHT22;6539;49.476;8.484;2024-01-11T01:18:53;-2.00;99.90
12948;DHT22;6539;49.476;8.484;2024-01-11T01:21:41;-1.90;99.90
12948;DHT22;6539;49.476;8.484;2024-01-11T01:24:30;-2.00;99.90
12948;DHT22;6539;49.476;8.484;2024-01-11T01:27:16;-2.00;99.90
12948;DHT22;6539;49.476;8.484;2024-01-11T01:30:03;-1.90;99.90
12948;DHT22;6539;49.476;8.484;2024-01-11T01:32:52;-2.00;99.90
12948;DHT22;6539;49.476;8.484;2024-01-11T01:35:39;-1.90;99.90
12948;DHT22;6539;49.476;8.484;2024-01-11T01:38:27;-1.90;99.90
12948;DHT22;6539;49.476;8.484;2024-01-11T01:41:13;-2.00;99.90
12948;DHT22;6539;49.476;8.484;2024-01-11T01:43:59;-2.00;99.90
12948;DHT22;6539;49.476;8.484;2024-01-11T01:46:45;-1.90;99.90
12948;DHT22;6539;49.476;8.484;2024-01-11T01:49:33;-2.00;99.90
12948;DHT22;6539;49.476;8.484;2024-01-11T01:52:21;-2.00;99.90
12948;DHT22;6539;49.476;8.484;2024-01-11T01:55:10;-2.00;99.90
12948;DHT22;6539;49.476;8.484;2024-01-11T01:57:59;-2.00;99.90
12948;DHT22;6539;49.476;8.484;2024-01-11T02:00:47;-1.90;99.90
12948;DHT22;6539;49.476;8.484;2024-01-11T02:03:36;-1.90;99.90
12948;DHT22;6539;49.476;8.484;2024-01-11T02:06:27;-2.00;99.90
12948;DHT22;6539;49.476;8.484;2024-01-11T02:09:17;-2.00;99.90
12948;DHT22;6539;49.476;8.484;2024-01-11T02:12:04;-2.00;99.90
12948;DHT22;6539;49.476;8.484;2024-01-11T02:14:53;-2.00;99.90
12948;DHT22;6539;49.476;8.484;2024-01-11T02:17:41;-2.00;99.90
12948;DHT22;6539;49.476;8.484;2024-01-11T02:20:28;-2.00;99.90
12948;DHT22;6539;49.476;8.484;2024-01-11T02:23:24;-2.00;99.90
12948;DHT22;6539;49.476;8.484;2024-01-11T02:26:15;-2.10;99.90
12948;DHT22;6539;49.476;8.484;2024-01-11T02:29:02;-2.10;99.90
12948;DHT22;6539;49.476;8.484;2024-01-11T02:31:48;-2.10;99.90
12948;DHT22;6539;49.476;8.484;2024-01-11T02:34:35;-2.10;99.90
12948;DHT22;6539;49.476;8.484;2024-01-11T02:37:21;-2.10;99.90
12948;DHT22;6539;49.476;8.484;2024-01-11T02:40:08;-2.10;99.90
12948;DHT22;6539;49.476;8.484;2024-01-11T02:42:54;-2.10;99.90
12948;DHT22;6539;49.476;8.484;2024-01-11T02:45:43;-2.10;99.90
12948;DHT22;6539;49.476;8.484;2024-01-11T02:48:29;-2.10;99.90
12948;DHT22;6539;49.476;8.484;2024-01-11T02:51:16;-2.10;99.90
12948;DHT22;6539;49.476;8.484;2024-01-11T02:54:02;-2.00;99.90
12948;DHT22;6539;49.476;8.484;2024-01-11T02:56:48;-2.00;99.90
12948;DHT22;6539;49.476;8.484;2024-01-11T02:59:34;-2.00;99.90
12948;DHT22;6539;49.476;8.484;2024-01-11T03:02:21;-2.00;99.90
12948;DHT22;6539;49.476;8.484;2024-01-11T03:05:12;-2.10;99.90
12948;DHT22;6539;49.476;8.484;2024-01-11T03:08:01;-2.10;99.90
12948;DHT22;6539;49.476;8.484;2024-01-11T03:10:52;-2.20;99.90
12948;DHT22;6539;49.476;8.484;2024-01-11T03:13:38;-2.20;99.90
12948;DHT22;6539;49.476;8.484;2024-01-11T03:16:26;-2.20;99.90
12948;DHT22;6539;49.476;8.484;2024-01-11T03:19:12;-2.20;99.90
12948;DHT22;6539;49.476;8.484;2024-01-11T03:21:58;-2.30;99.90
12948;DHT22;6539;49.476;8.484;2024-01-11T03:24:53;-2.30;99.90
12948;DHT22;6539;49.476;8.484;2024-01-11T03:27:39;-2.40;99.90
12948;DHT22;6539;49.476;8.484;2024-01-11T03:30:25;-2.40;99.90
12948;DHT22;6539;49.476;8.484;2024-01-11T03:33:11;-2.40;99.90
12948;DHT22;6539;49.476;8.484;2024-01-11T03:35:57;-2.40;99.90
12948;DHT22;6539;49.476;8.484;2024-01-11T03:38:43;-2.50;99.90
12948;DHT22;6539;49.476;8.484;2024-01-11T03:41:32;-2.40;99.90
12948;DHT22;6539;49.476;8.484;2024-01-11T03:44:20;-2.40;99.90
12948;DHT22;6539;49.476;8.484;2024-01-11T03:47:09;-2.40;99.90
12948;DHT22;6539;49.476;8.484;2024-01-11T03:49:55;-2.40;99.90
12948;DHT22;6539;49.476;8.484;2024-01-11T03:52:42;-2.40;99.90
12948;DHT22;6539;49.476;8.484;2024-01-11T03:55:28;-2.40;99.90
12948;DHT22;6539;49.476;8.484;2024-01-11T03:58:14;-2.30;99.90
12948;DHT22;6539;49.476;8.484;2024-01-11T04:01:02;-2.30;99.90
12948;DHT22;6539;49.476;8.484;2024-01-11T04:03:48;-2.30;99.90
12948;DHT22;6539;49.476;8.484;2024-01-11T04:06:35;-2.30;99.90
12948;DHT22;6539;49.476;8.484;2024-01-11T04:09:25;-2.20;99.90
12948;DHT22;6539;49.476;8.484;2024-01-11T04:12:14;-2.30;99.90
12948;DHT22;6539;49.476;8.484;2024-01-11T04:15:03;-2.40;99.90
12948;DHT22;6539;49.476;8.484;2024-01-11T04:17:49;-2.40;99.90
12948;DHT22;6539;49.476;8.484;2024-01-11T04:20:35;-2.40;99.90
12948;DHT22;6539;49.476;8.484;2024-01-11T04:23:21;-2.30;99.90
12948;DHT22;6539;49.476;8.484;2024-01-11T04:26:10;-2.40;99.90
12948;DHT22;6539;49.476;8.484;2024-01-11T04:28:56;-2.50;99.90
12948;DHT22;6539;49.476;8.484;2024-01-11T04:31:45;-2.50;99.90
12948;DHT22;6539;49.476;8.484;2024-01-11T04:34:31;-2.60;99.90
12948;DHT22;6539;49.476;8.484;2024-01-11T04:37:19;-2.50;99.90
12948;DHT22;6539;49.476;8.484;2024-01-11T04:40:06;-2.50;99.90
12948;DHT22;6539;49.476;8.484;2024-01-11T04:42:56;-2.60;99.90
12948;DHT22;6539;49.476;8.484;2024-01-11T04:45:44;-2.60;99.90
12948;DHT22;6539;49.476;8.484;2024-01-11T04:48:30;-2.60;99.90
12948;DHT22;6539;49.476;8.484;2024-01-11T04:51:17;-2.70;99.90
12948;DHT22;6539;49.476;8.484;2024-01-11T04:54:04;-2.70;99.90
12948;DHT22;6539;49.476;8.484;2024-01-11T04:56:52;-2.70;99.90
12948;DHT22;6539;49.476;8.484;2024-01-11T04:59:38;-2.80;99.90
12948;DHT22;6539;49.476;8.484;2024-01-11T05:02:24;-2.80;99.90
12948;DHT22;6539;49.476;8.484;2024-01-11T05:05:10;-2.80;99.90
12948;DHT22;6539;49.476;8.484;2024-01-11T05:07:57;-2.80;99.90
12948;DHT22;6539;49.476;8.484;2024-01-11T05:10:48;-2.80;99.90
12948;DHT22;6539;49.476;8.484;2024-01-11T05:13:34;-2.80;99.90
12948;DHT22;6539;49.476;8.484;2024-01-11T05:16:22;-2.80;99.90
12948;DHT22;6539;49.476;8.484;2024-01-11T05:19:09;-2.80;99.90
12948;DHT22;6539;49.476;8.484;2024-01-11T05:21:55;-2.80;99.90
12948;DHT22;6539;49.476;8.484;2024-01-11T05:24:42;-2.70;99.90
12948;DHT22;6539;49.476;8.484;2024-01-11T05:27:30;-2.80;99.90
12948;DHT22;6539;49.476;8.484;2024-01-11T05:30:19;-2.70;99.90
12948;DHT22;6539;49.476;8.484;2024-01-11T05:33:05;-2.70;99.90
12948;DHT22;6539;49.476;8.484;2024-01-11T05:35:51;-2.80;99.90
12948;DHT22;6539;49.476;8.484;2024-01-11T05:38:39;-2.80;99.90
12948;DHT22;6539;49.476;8.484;2024-01-11T05:41:28;-2.90;99.90
12948;DHT22;6539;49.476;8.484;2024-01-11T05:44:14;-2.90;99.90
12948;DHT22;6539;49.476;8.484;2024-01-11T05:47:03;-2.90;99.90
12948;DHT22;6539;49.476;8.484;2024-01-11T05:49:51;-2.90;99.90
12948;DHT22;6539;49.476;8.484;2024-01-11T05:52:43;-2.90;99.90
12948;DHT22;6539;49.476;8.484;2024-01-11T05:55:29;-2.90;99.90
12948;DHT22;6539;49.476;8.484;2024-01-11T05:58:18;-2.90;99.90
12948;DHT22;6539;49.476;8.484;2024-01-11T06:01:05;-2.90;99.90
12948;DHT22;6539;49.476;8.484;2024-01-11T06:03:51;-2.90;99.90
12948;DHT22;6539;49.476;8.484;2024-01-11T06:06:37;-2.80;99.90
12948;DHT22;6539;49.476;8.484;2024-01-11T06:09:23;-2.80;99.90
12948;DHT22;6539;49.476;8.484;2024-01-11T06:12:10;-2.80;99.90
12948;DHT22;6539;49.476;8.484;2024-01-11T06:14:56;-2.90;99.90
12948;DHT22;6539;49.476;8.484;2024-01-11T06:17:42;-3.00;99.90
12948;DHT22;6539;49.476;8.484;2024-01-11T06:20:28;-3.00;99.90
12948;DHT22;6539;49.476;8.484;2024-01-11T06:23:14;-3.00;99.90
12948;DHT22;6539;49.476;8.484;2024-01-11T06:26:02;-3.00;99.90
12948;DHT22;6539;49.476;8.484;2024-01-11T06:28:48;-3.00;99.90
12948;DHT22;6539;49.476;8.484;2024-01-11T06:31:34;-2.90;99.90
12948;DHT22;6539;49.476;8.484;2024-01-11T06:34:21;-2.90;99.90
12948;DHT22;6539;49.476;8.484;2024-01-11T06:37:07;-3.00;99.90
12948;DHT22;6539;49.476;8.484;2024-01-11T06:39:56;-2.90;99.90
12948;DHT22;6539;49.476;8.484;2024-01-11T06:42:42;-2.90;99.90
12948;DHT22;6539;49.476;8.484;2024-01-11T06:45:28;-2.90;99.90
12948;DHT22;6539;49.476;8.484;2024-01-11T06:48:14;-2.90;99.90
12948;DHT22;6539;49.476;8.484;2024-01-11T06:51:00;-3.00;99.90
12948;DHT22;6539;49.476;8.484;2024-01-11T06:53:46;-3.00;99.90
12948;DHT22;6539;49.476;8.484;2024-01-11T06:56:32;-3.00;99.90
12948;DHT22;6539;49.476;8.484;2024-01-11T06:59:18;-3.00;99.90
12948;DHT22;6539;49.476;8.484;2024-01-11T07:02:06;-3.00;99.90
12948;DHT22;6539;49.476;8.484;2024-01-11T07:04:52;-3.10;99.90
12948;DHT22;6539;49.476;8.484;2024-01-11T07:07:39;-3.10;99.90
12948;DHT22;6539;49.476;8.484;2024-01-11T07:10:27;-3.20;99.90
12948;DHT22;6539;49.476;8.484;2024-01-11T07:13:13;-3.20;99.90
12948;DHT22;6539;49.476;8.484;2024-01-11T07:16:03;-3.20;99.90
12948;DHT22;6539;49.476;8.484;2024-01-11T07:18:49;-3.20;99.90
12948;DHT22;6539;49.476;8.484;2024-01-11T07:21:35;-3.30;99.90
12948;DHT22;6539;49.476;8.484;2024-01-11T07:24:21;-3.30;99.90
12948;DHT22;6539;49.476;8.484;2024-01-11T07:27:08;-3.30;99.90
12948;DHT22;6539;49.476;8.484;2024-01-11T07:29:56;-3.30;99.90
12948;DHT22;6539;49.476;8.484;2024-01-11T07:32:42;-3.30;99.90
12948;DHT22;6539;49.476;8.484;2024-01-11T07:35:28;-3.30;99.90
12948;DHT22;6539;49.476;8.484;2024-01-11T07:38:17;-3.30;99.90
12948;DHT22;6539;49.476;8.484;2024-01-11T07:41:08;-3.30;99.90
12948;DHT22;6539;49.476;8.484;2024-01-11T07:43:54;-3.30;99.90
12948;DHT22;6539;49.476;8.484;2024-01-11T07:46:44;-3.20;99.90
12948;DHT22;6539;49.476;8.484;2024-01-11T07:49:35;-3.20;99.90
12948;DHT22;6539;49.476;8.484;2024-01-11T07:52:21;-3.20;99.90
12948;DHT22;6539;49.476;8.484;2024-01-11T07:55:10;-3.20;99.90
12948;DHT22;6539;49.476;8.484;2024-01-11T07:57:58;-3.20;99.90
12948;DHT22;6539;49.476;8.484;2024-01-11T08:00:47;-3.10;99.90
12948;DHT22;6539;49.476;8.484;2024-01-11T08:03:34;-3.10;99.90
12948;DHT22;6539;49.476;8.484;2024-01-11T08:06:20;-3.00;99.90
12948;DHT22;6539;49.476;8.484;2024-01-11T08:09:11;-3.00;99.90
12948;DHT22;6539;49.476;8.484;2024-01-11T08:11:59;-2.90;99.90
12948;DHT22;6539;49.476;8.484;2024-01-11T08:14:47;-3.00;99.90
12948;DHT22;6539;49.476;8.484;2024-01-11T08:17:36;-3.00;99.90
12948;DHT22;6539;49.476;8.484;2024-01-11T08:20:22;-2.90;99.90
12948;DHT22;6539;49.476;8.484;2024-01-11T08:23:11;-2.90;99.90
12948;DHT22;6539;49.476;8.484;2024-01-11T08:25:57;-2.90;99.90
12948;DHT22;6539;49.476;8.484;2024-01-11T08:28:44;-2.90;99.90
12948;DHT22;6539;49.476;8.484;2024-01-11T08:31:30;-2.90;99.90
12948;DHT22;6539;49.476;8.484;2024-01-11T08:34:19;-2.80;99.90
12948;DHT22;6539;49.476;8.484;2024-01-11T08:37:12;-2.70;99.90
12948;DHT22;6539;49.476;8.484;2024-01-11T08:40:02;-2.70;99.90
12948;DHT22;6539;49.476;8.484;2024-01-11T08:42:51;-2.70;99.90
12948;DHT22;6539;49.476;8.484;2024-01-11T08:45:40;-2.60;99.90
12948;DHT22;6539;49.476;8.484;2024-01-11T08:48:27;-2.60;99.90
12948;DHT22;6539;49.476;8.484;2024-01-11T08:51:18;-2.60;99.90
12948;DHT22;6539;49.476;8.484;2024-01-11T08:54:04;-2.50;99.90
12948;DHT22;6539;49.476;8.484;2024-01-11T08:56:54;-2.50;99.90
12948;DHT22;6539;49.476;8.484;2024-01-11T08:59:40;-2.50;99.90
12948;DHT22;6539;49.476;8.484;2024-01-11T09:02:27;-2.40;99.90
12948;DHT22;6539;49.476;8.484;2024-01-11T09:05:15;-2.20;99.90
12948;DHT22;6539;49.476;8.484;2024-01-11T09:08:01;-2.10;99.90
12948;DHT22;6539;49.476;8.484;2024-01-11T09:10:47;-2.00;99.90
12948;DHT22;6539;49.476;8.484;2024-01-11T09:13:34;-1.80;99.90
12948;DHT22;6539;49.476;8.484;2024-01-11T09:16:20;-1.60;99.90
12948;DHT22;6539;49.476;8.484;2024-01-11T09:19:09;-1.50;99.90
12948;DHT22;6539;49.476;8.484;2024-01-11T09:21:55;-1.30;99.90
12948;DHT22;6539;49.476;8.484;2024-01-11T09:24:41;-1.00;99.90
12948;DHT22;6539;49.476;8.484;2024-01-11T09:27:27;-0.80;99.90
12948;DHT22;6539;49.476;8.484;2024-01-11T09:30:13;-0.60;99.90
12948;DHT22;6539;49.476;8.484;2024-01-11T09:33:01;-0.40;99.90
12948;DHT22;6539;49.476;8.484;2024-01-11T09:35:48;-0.20;99.90
12948;DHT22;6539;49.476;8.484;2024-01-11T09:38:38;0.00;99.90
12948;DHT22;6539;49.476;8.484;2024-01-11T09:41:25;0.20;99.90
12948;DHT22;6539;49.476;8.484;2024-01-11T09:44:13;0.40;99.90
12948;DHT22;6539;49.476;8.484;2024-01-11T09:47:00;0.60;99.90
12948;DHT22;6539;49.476;8.484;2024-01-11T09:49:53;0.60;99.90
12948;DHT22;6539;49.476;8.484;2024-01-11T09:52:41;0.70;99.90
12948;DHT22;6539;49.476;8.484;2024-01-11T09:55:39;0.90;99.90
12948;DHT22;6539;49.476;8.484;2024-01-11T09:58:26;1.40;99.90
12948;DHT22;6539;49.476;8.484;2024-01-11T10:01:12;1.60;99.90
12948;DHT22;6539;49.476;8.484;2024-01-11T10:04:03;1.80;99.90
12948;DHT22;6539;49.476;8.484;2024-01-11T10:06:50;2.00;99.90
12948;DHT22;6539;49.476;8.484;2024-01-11T10:09:39;2.10;99.90
12948;DHT22;6539;49.476;8.484;2024-01-11T10:12:26;2.00;99.90
12948;DHT22;6539;49.476;8.484;2024-01-11T10:15:13;1.80;99.90
12948;DHT22;6539;49.476;8.484;2024-01-11T10:18:02;2.20;99.90
12948;DHT22;6539;49.476;8.484;2024-01-11T10:20:48;2.60;99.90
12948;DHT22;6539;49.476;8.484;2024-01-11T10:23:35;3.00;99.90
12948;DHT22;6539;49.476;8.484;2024-01-11T10:26:22;3.10;99.90
12948;DHT22;6539;49.476;8.484;2024-01-11T10:29:08;3.50;99.90
12948;DHT22;6539;49.476;8.484;2024-01-11T10:31:59;4.10;99.90
12948;DHT22;6539;49.476;8.484;2024-01-11T10:34:45;4.10;99.90
12948;DHT22;6539;49.476;8.484;2024-01-11T10:37:34;4.30;99.90
12948;DHT22;6539;49.476;8.484;2024-01-11T10:40:21;4.30;99.90
12948;DHT22;6539;49.476;8.484;2024-01-11T10:43:11;4.50;99.90
12948;DHT22;6539;49.476;8.484;2024-01-11T10:46:01;4.40;99.90
12948;DHT22;6539;49.476;8.484;2024-01-11T10:48:56;4.60;99.90
12948;DHT22;6539;49.476;8.484;2024-01-11T10:51:53;4.80;99.90
12948;DHT22;6539;49.476;8.484;2024-01-11T10:54:45;4.70;99.90
12948;DHT22;6539;49.476;8.484;2024-01-11T10:57:34;4.80;99.90
12948;DHT22;6539;49.476;8.484;2024-01-11T11:00:21;5.10;99.90
12948;DHT22;6539;49.476;8.484;2024-01-11T11:03:14;4.80;99.90
12948;DHT22;6539;49.476;8.484;2024-01-11T11:06:04;4.60;99.90
12948;DHT22;6539;49.476;8.484;2024-01-11T11:08:58;4.70;99.90
12948;DHT22;6539;49.476;8.484;2024-01-11T11:11:49;4.80;99.90
12948;DHT22;6539;49.476;8.484;2024-01-11T11:14:42;4.60;99.90
12948;DHT22;6539;49.476;8.484;2024-01-11T11:17:29;5.10;99.90
12948;DHT22;6539;49.476;8.484;2024-01-11T11:20:16;5.10;99.90
12948;DHT22;6539;49.476;8.484;2024-01-11T11:23:06;5.10;99.90
12948;DHT22;6539;49.476;8.484;2024-01-11T11:25:56;5.10;99.90
12948;DHT22;6539;49.476;8.484;2024-01-11T11:28:47;5.00;99.90
12948;DHT22;6539;49.476;8.484;2024-01-11T11:31:38;5.10;99.90
12948;DHT22;6539;49.476;8.484;2024-01-11T11:34:44;5.10;99.90
12948;DHT22;6539;49.476;8.484;2024-01-11T11:37:30;5.40;99.90
12948;DHT22;6539;49.476;8.484;2024-01-11T11:40:19;5.30;99.90
12948;DHT22;6539;49.476;8.484;2024-01-11T11:43:08;5.30;99.90
12948;DHT22;6539;49.476;8.484;2024-01-11T11:45:55;5.40;99.90
12948;DHT22;6539;49.476;8.484;2024-01-11T11:48:51;5.60;99.90
12948;DHT22;6539;49.476;8.484;2024-01-11T11:51:45;5.80;99.90
12948;DHT22;6539;49.476;8.484;2024-01-11T11:54:32;6.00;99.90
12948;DHT22;6539;49.476;8.484;2024-01-11T11:57:21;6.60;99.90
12948;DHT22;6539;49.476;8.484;2024-01-11T12:00:09;7.00;99.90
12948;DHT22;6539;49.476;8.484;2024-01-11T12:02:58;7.50;99.90
12948;DHT22;6539;49.476;8.484;2024-01-11T12:05:46;7.80;99.90
12948;DHT22;6539;49.476;8.484;2024-01-11T12:08:32;7.80;99.70
12948;DHT22;6539;49.476;8.484;2024-01-11T12:11:21;7.60;99.60
12948;DHT22;6539;49.476;8.484;2024-01-11T12:14:08;7.20;99.90
12948;DHT22;6539;49.476;8.484;2024-01-11T12:16:57;6.90;99.90
12948;DHT22;6539;49.476;8.484;2024-01-11T12:19:44;7.00;99.90
12948;DHT22;6539;49.476;8.484;2024-01-11T12:22:30;7.10;99.90
12948;DHT22;6539;49.476;8.484;2024-01-11T12:25:19;7.30;99.80
12948;DHT22;6539;49.476;8.484;2024-01-11T12:28:07;7.20;99.90
12948;DHT22;6539;49.476;8.484;2024-01-11T12:30:53;7.10;99.90
12948;DHT22;6539;49.476;8.484;2024-01-11T12:33:40;7.10;99.80
12948;DHT22;6539;49.476;8.484;2024-01-11T12:36:29;7.20;99.60
12948;DHT22;6539;49.476;8.484;2024-01-11T12:39:19;6.90;99.90
12948;DHT22;6539;49.476;8.484;2024-01-11T12:42:10;7.00;99.60
12948;DHT22;6539;49.476;8.484;2024-01-11T12:44:56;7.20;99.60
12948;DHT22;6539;49.476;8.484;2024-01-11T12:47:43;6.80;99.10
12948;DHT22;6539;49.476;8.484;2024-01-11T12:50:33;5.80;99.90
12948;DHT22;6539;49.476;8.484;2024-01-11T12:53:19;5.00;99.90
12948;DHT22;6539;49.476;8.484;2024-01-11T12:56:09;4.30;99.90
12948;DHT22;6539;49.476;8.484;2024-01-11T12:59:07;3.80;99.90
12948;DHT22;6539;49.476;8.484;2024-01-11T13:01:57;3.60;99.90
12948;DHT22;6539;49.476;8.484;2024-01-11T13:04:45;3.20;99.90
12948;DHT22;6539;49.476;8.484;2024-01-11T13:07:33;2.90;99.90
12948;DHT22;6539;49.476;8.484;2024-01-11T13:10:23;2.60;99.90
12948;DHT22;6539;49.476;8.484;2024-01-11T13:13:13;2.50;99.90
12948;DHT22;6539;49.476;8.484;2024-01-11T13:15:59;2.40;99.90
12948;DHT22;6539;49.476;8.484;2024-01-11T13:18:49;2.20;99.90
12948;DHT22;6539;49.476;8.484;2024-01-11T13:21:35;2.20;99.90
12948;DHT22;6539;49.476;8.484;2024-01-11T13:24:21;2.10;99.90
12948;DHT22;6539;49.476;8.484;2024-01-11T13:27:09;2.10;99.90
12948;DHT22;6539;49.476;8.484;2024-01-11T13:29:55;2.00;99.90
12948;DHT22;6539;49.476;8.484;2024-01-11T13:32:44;2.00;99.90
12948;DHT22;6539;49.476;8.484;2024-01-11T13:35:32;2.00;99.90
12948;DHT22;6539;49.476;8.484;2024-01-11T13:38:19;2.00;99.90
12948;DHT22;6539;49.476;8.484;2024-01-11T13:41:05;2.00;99.90
12948;DHT22;6539;49.476;8.484;2024-01-11T13:43:53;2.00;99.90
12948;DHT22;6539;49.476;8.484;2024-01-11T13:46:42;1.90;99.90
12948;DHT22;6539;49.476;8.484;2024-01-11T13:49:29;1.90;99.90
12948;DHT22;6539;49.476;8.484;2024-01-11T13:52:15;1.90;99.90
12948;DHT22;6539;49.476;8.484;2024-01-11T13:55:06;1.90;99.90
12948;DHT22;6539;49.476;8.484;2024-01-11T13:57:55;2.00;99.90
12948;DHT22;6539;49.476;8.484;2024-01-11T14:00:41;1.90;99.90
12948;DHT22;6539;49.476;8.484;2024-01-11T14:03:28;1.90;99.90
12948;DHT22;6539;49.476;8.484;2024-01-11T14:06:14;1.80;99.90
12948;DHT22;6539;49.476;8.484;2024-01-11T14:09:00;1.80;99.90
12948;DHT22;6539;49.476;8.484;2024-01-11T14:11:46;1.90;99.90
12948;DHT22;6539;49.476;8.484;2024-01-11T14:14:34;2.00;99.90
12948;DHT22;6539;49.476;8.484;2024-01-11T14:17:21;1.90;99.90
12948;DHT22;6539;49.476;8.484;2024-01-11T14:20:10;2.00;99.90
12948;DHT22;6539;49.476;8.484;2024-01-11T14:22:59;2.00;99.90
12948;DHT22;6539;49.476;8.484;2024-01-11T14:25:49;1.90;99.90
12948;DHT22;6539;49.476;8.484;2024-01-11T14:28:35;1.90;99.90
12948;DHT22;6539;49.476;8.484;2024-01-11T14:31:28;1.90;99.90
12948;DHT22;6539;49.476;8.484;2024-01-11T14:34:14;1.90;99.90
12948;DHT22;6539;49.476;8.484;2024-01-11T14:37:00;1.90;99.90
12948;DHT22;6539;49.476;8.484;2024-01-11T14:39:47;1.80;99.90
12948;DHT22;6539;49.476;8.484;2024-01-11T14:42:33;1.90;99.90
12948;DHT22;6539;49.476;8.484;2024-01-11T14:45:19;1.90;99.90
12948;DHT22;6539;49.476;8.484;2024-01-11T14:48:05;1.80;99.90
12948;DHT22;6539;49.476;8.484;2024-01-11T14:50:51;1.80;99.90
12948;DHT22;6539;49.476;8.484;2024-01-11T14:53:40;1.90;99.90
12948;DHT22;6539;49.476;8.484;2024-01-11T14:56:26;1.90;99.90
12948;DHT22;6539;49.476;8.484;2024-01-11T14:59:13;1.80;99.90
12948;DHT22;6539;49.476;8.484;2024-01-11T15:02:04;1.80;99.90
12948;DHT22;6539;49.476;8.484;2024-01-11T15:04:50;1.80;99.90
12948;DHT22;6539;49.476;8.484;2024-01-11T15:07:39;1.80;99.90
12948;DHT22;6539;49.476;8.484;2024-01-11T15:10:27;1.80;99.90
12948;DHT22;6539;49.476;8.484;2024-01-11T15:13:14;1.80;99.90
12948;DHT22;6539;49.476;8.484;2024-01-11T15:16:01;1.80;99.90
12948;DHT22;6539;49.476;8.484;2024-01-11T15:18:47;1.70;99.90
12948;DHT22;6539;49.476;8.484;2024-01-11T15:21:36;1.70;99.90
12948;DHT22;6539;49.476;8.484;2024-01-11T15:24:23;1.70;99.90
12948;DHT22;6539;49.476;8.484;2024-01-11T15:27:10;1.70;99.90
12948;DHT22;6539;49.476;8.484;2024-01-11T15:29:59;1.60;99.90
12948;DHT22;6539;49.476;8.484;2024-01-11T15:32:45;1.50;99.90
12948;DHT22;6539;49.476;8.484;2024-01-11T15:35:31;1.50;99.90
12948;DHT22;6539;49.476;8.484;2024-01-11T15:38:19;1.50;99.90
12948;DHT22;6539;49.476;8.484;2024-01-11T15:41:05;1.50;99.90
12948;DHT22;6539;49.476;8.484;2024-01-11T15:43:51;1.50;99.90
12948;DHT22;6539;49.476;8.484;2024-01-11T15:46:40;1.50;99.90
12948;DHT22;6539;49.476;8.484;2024-01-11T15:49:29;1.50;99.90
12948;DHT22;6539;49.476;8.484;2024-01-11T15:52:17;1.50;99.90
12948;DHT22;6539;49.476;8.484;2024-01-11T15:55:05;1.40;99.90
12948;DHT22;6539;49.476;8.484;2024-01-11T15:57:54;1.40;99.90
12948;DHT22;6539;49.476;8.484;2024-01-11T16:00:40;1.30;99.90
12948;DHT22;6539;49.476;8.484;2024-01-11T16:03:29;1.40;99.90
12948;DHT22;6539;49.476;8.484;2024-01-11T16:06:15;1.40;99.90
12948;DHT22;6539;49.476;8.484;2024-01-11T16:09:01;1.40;99.90
12948;DHT22;6539;49.476;8.484;2024-01-11T16:11:55;1.30;99.90
12948;DHT22;6539;49.476;8.484;2024-01-11T16:14:44;1.30;99.90
12948;DHT22;6539;49.476;8.484;2024-01-11T16:17:33;1.30;99.90
12948;DHT22;6539;49.476;8.484;2024-01-11T16:20:22;1.30;99.90
12948;DHT22;6539;49.476;8.484;2024-01-11T16:23:08;1.30;99.90
12948;DHT22;6539;49.476;8.484;2024-01-11T16:25:54;1.30;99.90
12948;DHT22;6539;49.476;8.484;2024-01-11T16:28:40;1.30;99.90
12948;DHT22;6539;49.476;8.484;2024-01-11T16:31:31;1.20;99.90
12948;DHT22;6539;49.476;8.484;2024-01-11T16:34:19;1.30;99.90
12948;DHT22;6539;49.476;8.484;2024-01-11T16:37:06;1.30;99.90
12948;DHT22;6539;49.476;8.484;2024-01-11T16:39:53;1.30;99.90
12948;DHT22;6539;49.476;8.484;2024-01-11T16:42:39;1.30;99.90
12948;DHT22;6539;49.476;8.484;2024-01-11T16:45:28;1.20;99.90
12948;DHT22;6539;49.476;8.484;2024-01-11T16:48:14;1.20;99.90
12948;DHT22;6539;49.476;8.484;2024-01-11T16:51:05;1.20;99.90
12948;DHT22;6539;49.476;8.484;2024-01-11T16:53:55;1.10;99.90
12948;DHT22;6539;49.476;8.484;2024-01-11T16:56:44;1.00;99.90
12948;DHT22;6539;49.476;8.484;2024-01-11T16:59:30;1.00;99.90
12948;DHT22;6539;49.476;8.484;2024-01-11T17:02:16;1.00;99.90
12948;DHT22;6539;49.476;8.484;2024-01-11T17:05:05;0.90;99.90
12948;DHT22;6539;49.476;8.484;2024-01-11T17:07:51;0.90;99.90
12948;DHT22;6539;49.476;8.484;2024-01-11T17:10:37;0.90;99.90
12948;DHT22;6539;49.476;8.484;2024-01-11T17:13:26;0.90;99.90
12948;DHT22;6539;49.476;8.484;2024-01-11T17:16:16;0.90;99.90
12948;DHT22;6539;49.476;8.484;2024-01-11T17:19:05;0.90;99.90
12948;DHT22;6539;49.476;8.484;2024-01-11T17:21:51;0.80;99.90
12948;DHT22;6539;49.476;8.484;2024-01-11T17:24:41;0.80;99.90
12948;DHT22;6539;49.476;8.484;2024-01-11T17:27:32;0.70;99.90
12948;DHT22;6539;49.476;8.484;2024-01-11T17:30:20;0.70;99.90
12948;DHT22;6539;49.476;8.484;2024-01-11T17:33:06;0.70;99.90
12948;DHT22;6539;49.476;8.484;2024-01-11T17:35:53;0.70;99.90
12948;DHT22;6539;49.476;8.484;2024-01-11T17:38:41;0.70;99.90
12948;DHT22;6539;49.476;8.484;2024-01-11T17:41:27;0.70;99.90
12948;DHT22;6539;49.476;8.484;2024-01-11T17:44:16;0.70;99.90
12948;DHT22;6539;49.476;8.484;2024-01-11T17:47:02;0.70;99.90
12948;DHT22;6539;49.476;8.484;2024-01-11T17:49:51;0.70;99.90
12948;DHT22;6539;49.476;8.484;2024-01-11T17:52:37;0.70;99.90
12948;DHT22;6539;49.476;8.484;2024-01-11T17:55:27;0.70;99.90
12948;DHT22;6539;49.476;8.484;2024-01-11T17:58:14;0.70;99.90
12948;DHT22;6539;49.476;8.484;2024-01-11T18:01:00;0.80;99.90
12948;DHT22;6539;49.476;8.484;2024-01-11T18:03:51;0.70;99.90